createdAt,value
2019-03-03T00:00:23.203Z,0
2019-03-03T00:01:23.132Z,0
2019-03-03T00:02:23.114Z,0
2019-03-03T00:03:23.153Z,0
2019-03-03T00:04:23.063Z,0
2019-03-03T00:05:23.051Z,0
2019-03-03T00:06:23.032Z,0
2019-03-03T00:07:23.002Z,0
2019-03-03T00:08:24.529Z,0
2019-03-03T00:09:22.960Z,0
2019-03-03T00:10:22.939Z,0
2019-03-03T00:11:22.686Z,0
2019-03-03T00:12:22.889Z,0
2019-03-03T00:13:22.878Z,0
2019-03-03T00:14:22.861Z,0
2019-03-03T00:15:22.601Z,0
2019-03-03T00:16:22.803Z,0
2019-03-03T00:17:22.789Z,0
2019-03-03T00:18:22.776Z,0
2019-03-03T00:19:22.759Z,0
2019-03-03T00:20:22.728Z,0
2019-03-03T00:21:22.703Z,0
2019-03-03T00:22:22.682Z,0
2019-03-03T00:23:22.677Z,0
2019-03-03T00:24:22.652Z,0
2019-03-03T00:25:22.622Z,0
2019-03-03T00:26:22.599Z,0
2019-03-03T00:27:22.564Z,0
2019-03-03T00:28:22.558Z,0
2019-03-03T00:29:22.543Z,0
2019-03-03T00:30:22.270Z,0
2019-03-03T00:31:22.504Z,0
2019-03-03T00:32:22.461Z,0
2019-03-03T00:33:22.448Z,0
2019-03-03T00:34:22.419Z,0
2019-03-03T00:35:22.419Z,0
2019-03-03T00:36:22.387Z,0
2019-03-03T00:37:22.361Z,0
2019-03-03T00:38:22.336Z,0
2019-03-03T00:39:22.331Z,0
2019-03-03T00:40:22.307Z,0
2019-03-03T00:41:22.278Z,0
2019-03-03T00:42:22.267Z,0
2019-03-03T00:43:22.227Z,0
2019-03-03T00:44:22.224Z,0
2019-03-03T00:45:22.197Z,0
2019-03-03T00:46:21.936Z,0
2019-03-03T00:47:22.139Z,0
2019-03-03T00:48:22.138Z,0
2019-03-03T00:49:22.110Z,0
2019-03-03T00:50:22.107Z,0
2019-03-03T00:51:22.066Z,0
2019-03-03T00:52:22.044Z,0
2019-03-03T00:53:22.024Z,0
2019-03-03T00:54:22.018Z,0
2019-03-03T00:55:21.978Z,0
2019-03-03T00:56:21.954Z,0
2019-03-03T00:57:21.949Z,0
2019-03-03T00:58:21.920Z,0
2019-03-03T00:59:21.911Z,0
2019-03-03T01:00:21.871Z,0
2019-03-03T01:01:21.863Z,0
2019-03-03T01:02:21.827Z,0
2019-03-03T01:03:21.824Z,0
2019-03-03T01:04:21.785Z,0
2019-03-03T01:05:21.770Z,0
2019-03-03T01:06:21.748Z,0
2019-03-03T01:07:21.740Z,0
2019-03-03T01:08:21.711Z,0
2019-03-03T01:09:21.681Z,0
2019-03-03T01:10:21.659Z,0
2019-03-03T01:11:21.645Z,0
2019-03-03T01:12:21.630Z,0
2019-03-03T01:13:21.598Z,0
2019-03-03T01:14:21.589Z,0
2019-03-03T01:15:21.550Z,0
2019-03-03T01:16:21.548Z,0
2019-03-03T01:17:21.511Z,0
2019-03-03T01:18:21.512Z,0
2019-03-03T01:19:21.489Z,0
2019-03-03T01:20:21.465Z,0
2019-03-03T01:21:21.434Z,0
2019-03-03T01:22:21.421Z,0
2019-03-03T01:23:21.382Z,0
2019-03-03T01:24:21.369Z,0
2019-03-03T01:25:21.348Z,0
2019-03-03T01:26:21.336Z,0
2019-03-03T01:27:21.304Z,0
2019-03-03T01:28:21.276Z,0
2019-03-03T01:29:21.266Z,0
2019-03-03T01:30:21.241Z,0
2019-03-03T01:31:21.243Z,0
2019-03-03T01:32:21.189Z,0
2019-03-03T01:33:21.188Z,0
2019-03-03T01:34:21.145Z,0
2019-03-03T01:35:21.151Z,0
2019-03-03T01:36:21.099Z,0
2019-03-03T01:37:21.089Z,0
2019-03-03T01:38:21.062Z,0
2019-03-03T01:39:21.062Z,0
2019-03-03T01:40:20.784Z,0
2019-03-03T01:41:21.005Z,0
2019-03-03T01:42:20.982Z,0
2019-03-03T01:43:20.983Z,0
2019-03-03T01:44:20.946Z,0
2019-03-03T01:45:20.931Z,0
2019-03-03T01:46:20.888Z,0
2019-03-03T01:47:20.864Z,0
2019-03-03T01:48:20.865Z,0
2019-03-03T01:49:20.835Z,0
2019-03-03T01:50:20.821Z,0
2019-03-03T01:51:20.784Z,0
2019-03-03T01:52:20.786Z,0
2019-03-03T01:53:20.754Z,0
2019-03-03T01:54:20.765Z,0
2019-03-03T01:55:20.699Z,0
2019-03-03T01:56:20.691Z,0
2019-03-03T01:57:20.663Z,0
2019-03-03T01:58:20.657Z,0
2019-03-03T01:59:20.620Z,0
2019-03-03T02:00:20.350Z,0
2019-03-03T02:01:20.578Z,0
2019-03-03T02:02:20.557Z,0
2019-03-03T02:03:20.551Z,0
2019-03-03T02:04:20.505Z,0
2019-03-03T02:05:20.491Z,0
2019-03-03T02:06:20.463Z,0
2019-03-03T02:07:20.475Z,0
2019-03-03T02:08:20.425Z,0
2019-03-03T02:09:20.407Z,0
2019-03-03T02:10:20.387Z,0
2019-03-03T02:11:20.356Z,0
2019-03-03T02:12:20.343Z,0
2019-03-03T02:13:20.319Z,0
2019-03-03T02:14:20.310Z,0
2019-03-03T02:15:20.279Z,0
2019-03-03T02:16:20.249Z,0
2019-03-03T02:17:20.241Z,0
2019-03-03T02:18:20.218Z,0
2019-03-03T02:19:20.209Z,0
2019-03-03T02:20:20.172Z,0
2019-03-03T02:21:20.155Z,0
2019-03-03T02:22:20.127Z,0
2019-03-03T02:23:20.124Z,0
2019-03-03T02:24:20.082Z,0
2019-03-03T02:25:20.064Z,0
2019-03-03T02:26:20.038Z,0
2019-03-03T02:27:20.040Z,0
2019-03-03T02:28:20.001Z,0
2019-03-03T02:29:19.991Z,0
2019-03-03T02:30:19.986Z,0
2019-03-03T02:31:19.944Z,0
2019-03-03T02:32:19.942Z,0
2019-03-03T02:33:19.900Z,0
2019-03-03T02:34:19.916Z,0
2019-03-03T02:35:19.856Z,0
2019-03-03T02:36:19.863Z,0
2019-03-03T02:37:19.822Z,0
2019-03-03T02:38:19.808Z,0
2019-03-03T02:39:19.769Z,0
2019-03-03T02:40:19.766Z,0
2019-03-03T02:41:19.759Z,0
2019-03-03T02:42:19.722Z,0
2019-03-03T02:43:19.689Z,0
2019-03-03T02:44:19.679Z,0
2019-03-03T02:45:19.419Z,0
2019-03-03T02:46:19.640Z,0
2019-03-03T02:47:19.610Z,0
2019-03-03T02:48:19.585Z,0
2019-03-03T02:49:19.573Z,0
2019-03-03T02:50:19.598Z,0
2019-03-03T02:51:19.566Z,0
2019-03-03T02:52:19.510Z,0
2019-03-03T02:53:19.491Z,0
2019-03-03T02:54:19.471Z,0
2019-03-03T02:55:19.462Z,0
2019-03-03T02:56:19.485Z,0
2019-03-03T02:57:19.142Z,0
2019-03-03T02:58:19.398Z,0
2019-03-03T02:59:19.372Z,0
2019-03-03T03:00:19.342Z,0
2019-03-03T03:01:19.319Z,0
2019-03-03T03:02:19.289Z,0
2019-03-03T03:03:19.283Z,0
2019-03-03T03:04:19.251Z,0
2019-03-03T03:05:19.222Z,0
2019-03-03T03:06:19.210Z,0
2019-03-03T03:07:19.175Z,0
2019-03-03T03:08:19.184Z,0
2019-03-03T03:09:19.149Z,0
2019-03-03T03:10:19.128Z,0
2019-03-03T03:11:19.086Z,0
2019-03-03T03:12:19.094Z,0
2019-03-03T03:13:19.054Z,0
2019-03-03T03:14:19.047Z,0
2019-03-03T03:15:19.031Z,0
2019-03-03T03:16:18.992Z,0
2019-03-03T03:17:18.965Z,0
2019-03-03T03:18:18.952Z,0
2019-03-03T03:19:18.922Z,0
2019-03-03T03:20:18.892Z,0
2019-03-03T03:21:18.882Z,0
2019-03-03T03:22:18.862Z,0
2019-03-03T03:23:18.852Z,0
2019-03-03T03:24:18.805Z,0
2019-03-03T03:25:18.797Z,0
2019-03-03T03:26:18.791Z,0
2019-03-03T03:27:18.780Z,0
2019-03-03T03:28:18.727Z,0
2019-03-03T03:29:18.729Z,0
2019-03-03T03:30:18.697Z,0
2019-03-03T03:31:18.492Z,0
2019-03-03T03:32:18.479Z,0
2019-03-03T03:33:18.690Z,0
2019-03-03T03:34:18.385Z,0
2019-03-03T03:35:18.587Z,0
2019-03-03T03:36:18.580Z,0
2019-03-03T03:37:18.575Z,0
2019-03-03T03:38:18.532Z,0
2019-03-03T03:39:18.493Z,0
2019-03-03T03:40:18.485Z,0
2019-03-03T03:41:18.467Z,0
2019-03-03T03:42:18.460Z,0
2019-03-03T03:43:18.410Z,0
2019-03-03T03:44:18.429Z,0
2019-03-03T03:45:18.387Z,0
2019-03-03T03:46:18.117Z,0
2019-03-03T03:47:18.072Z,0
2019-03-03T03:48:18.308Z,0
2019-03-03T03:49:18.293Z,0
2019-03-03T03:50:18.298Z,0
2019-03-03T03:51:18.252Z,0
2019-03-03T03:52:18.225Z,0
2019-03-03T03:53:18.218Z,0
2019-03-03T03:54:18.188Z,0
2019-03-03T03:55:18.170Z,0
2019-03-03T03:56:18.137Z,0
2019-03-03T03:57:18.144Z,0
2019-03-03T03:58:18.108Z,0
2019-03-03T03:59:18.150Z,0
2019-03-03T04:00:18.054Z,0
2019-03-03T04:01:18.055Z,0
2019-03-03T04:02:18.007Z,0
2019-03-03T04:03:18.014Z,0
2019-03-03T04:04:17.981Z,0
2019-03-03T04:05:17.738Z,0
2019-03-03T04:06:17.956Z,0
2019-03-03T04:07:17.922Z,0
2019-03-03T04:08:17.895Z,0
2019-03-03T04:09:17.906Z,0
2019-03-03T04:10:17.842Z,0
2019-03-03T04:11:17.825Z,0
2019-03-03T04:12:17.806Z,0
2019-03-03T04:13:17.794Z,0
2019-03-03T04:14:17.783Z,0
2019-03-03T04:15:17.747Z,0
2019-03-03T04:16:17.734Z,0
2019-03-03T04:17:17.699Z,0
2019-03-03T04:18:17.450Z,0
2019-03-03T04:19:17.637Z,0
2019-03-03T04:20:17.628Z,0
2019-03-03T04:21:17.754Z,0
2019-03-03T04:22:17.590Z,0
2019-03-03T04:23:17.574Z,0
2019-03-03T04:24:17.531Z,0
2019-03-03T04:25:17.525Z,0
2019-03-03T04:26:17.506Z,0
2019-03-03T04:27:17.561Z,0
2019-03-03T04:28:17.451Z,0
2019-03-03T04:29:17.450Z,0
2019-03-03T04:30:17.409Z,0
2019-03-03T04:31:17.404Z,0
2019-03-03T04:32:17.418Z,0
2019-03-03T04:33:17.375Z,0
2019-03-03T04:34:17.555Z,0
2019-03-03T04:35:17.080Z,0
2019-03-03T04:36:17.283Z,0
2019-03-03T04:37:17.263Z,0
2019-03-03T04:38:17.234Z,0
2019-03-03T04:39:17.219Z,0
2019-03-03T04:40:17.208Z,0
2019-03-03T04:41:17.171Z,0
2019-03-03T04:42:17.155Z,0
2019-03-03T04:43:17.142Z,0
2019-03-03T04:44:17.119Z,0
2019-03-03T04:45:17.085Z,0
2019-03-03T04:46:17.077Z,0
2019-03-03T04:47:17.037Z,0
2019-03-03T04:48:17.033Z,0
2019-03-03T04:49:17.003Z,0
2019-03-03T04:50:17.001Z,0
2019-03-03T04:51:16.951Z,0
2019-03-03T04:52:16.938Z,0
2019-03-03T04:53:16.918Z,0
2019-03-03T04:54:16.662Z,0
2019-03-03T04:55:16.875Z,0
2019-03-03T04:56:16.848Z,0
2019-03-03T04:57:16.835Z,0
2019-03-03T04:58:16.820Z,0
2019-03-03T04:59:16.805Z,0
2019-03-03T05:00:16.763Z,0
2019-03-03T05:01:16.755Z,0
2019-03-03T05:02:16.768Z,0
2019-03-03T05:03:16.719Z,0
2019-03-03T05:04:16.684Z,0
2019-03-03T05:05:16.664Z,0
2019-03-03T05:06:16.643Z,0
2019-03-03T05:07:16.633Z,0
2019-03-03T05:08:16.602Z,0
2019-03-03T05:09:16.580Z,0
2019-03-03T05:10:16.563Z,0
2019-03-03T05:11:16.537Z,0
2019-03-03T05:12:16.528Z,0
2019-03-03T05:13:16.491Z,0
2019-03-03T05:14:16.476Z,0
2019-03-03T05:15:16.440Z,0
2019-03-03T05:16:16.446Z,0
2019-03-03T05:17:16.412Z,0
2019-03-03T05:18:16.393Z,0
2019-03-03T05:19:16.354Z,0
2019-03-03T05:20:16.354Z,0
2019-03-03T05:21:16.331Z,0
2019-03-03T05:22:16.316Z,0
2019-03-03T05:23:16.271Z,0
2019-03-03T05:24:16.018Z,0
2019-03-03T05:25:16.004Z,0
2019-03-03T05:26:16.232Z,0
2019-03-03T05:27:16.195Z,0
2019-03-03T05:28:16.179Z,0
2019-03-03T05:29:16.159Z,0
2019-03-03T05:30:16.159Z,0
2019-03-03T05:31:16.125Z,0
2019-03-03T05:32:16.093Z,0
2019-03-03T05:33:16.072Z,0
2019-03-03T05:34:16.043Z,0
2019-03-03T05:35:16.029Z,0
2019-03-03T05:36:16.021Z,0
2019-03-03T05:37:15.994Z,0
2019-03-03T05:38:15.966Z,0
2019-03-03T05:39:15.935Z,0
2019-03-03T05:40:15.918Z,0
2019-03-03T05:41:15.904Z,0
2019-03-03T05:42:15.882Z,0
2019-03-03T05:43:15.858Z,0
2019-03-03T05:44:15.828Z,0
2019-03-03T05:45:15.813Z,0
2019-03-03T05:46:15.796Z,0
2019-03-03T05:47:15.787Z,0
2019-03-03T05:48:15.495Z,0
2019-03-03T05:49:15.730Z,0
2019-03-03T05:50:15.715Z,0
2019-03-03T05:51:15.700Z,0
2019-03-03T05:52:15.656Z,0
2019-03-03T05:53:15.649Z,0
2019-03-03T05:54:15.620Z,0
2019-03-03T05:55:15.615Z,0
2019-03-03T05:56:16.364Z,0
2019-03-03T05:57:15.578Z,0
2019-03-03T05:58:15.535Z,0
2019-03-03T05:59:15.524Z,0
2019-03-03T06:00:15.542Z,0
2019-03-03T06:01:15.477Z,0
2019-03-03T06:02:15.458Z,0
2019-03-03T06:03:15.420Z,0
2019-03-03T06:04:15.425Z,0
2019-03-03T06:05:15.392Z,0
2019-03-03T06:06:15.374Z,0
2019-03-03T06:07:15.362Z,0
2019-03-03T06:08:15.335Z,0
2019-03-03T06:09:15.302Z,0
2019-03-03T06:10:15.288Z,0
2019-03-03T06:11:15.252Z,0
2019-03-03T06:12:15.244Z,0
2019-03-03T06:13:15.228Z,0
2019-03-03T06:14:15.210Z,0
2019-03-03T06:15:17.438Z,0
2019-03-03T06:16:15.154Z,0
2019-03-03T06:17:15.136Z,0
2019-03-03T06:18:15.115Z,0
2019-03-03T06:19:15.109Z,0
2019-03-03T06:20:15.062Z,4
2019-03-03T06:21:15.059Z,4
2019-03-03T06:22:15.025Z,4
2019-03-03T06:23:15.025Z,4
2019-03-03T06:24:14.983Z,4
2019-03-03T06:25:14.983Z,4
2019-03-03T06:26:14.993Z,4
2019-03-03T06:27:14.936Z,4
2019-03-03T06:28:14.903Z,4
2019-03-03T06:29:14.883Z,0
2019-03-03T06:30:14.855Z,0
2019-03-03T06:31:14.838Z,4
2019-03-03T06:32:14.614Z,4
2019-03-03T06:33:14.799Z,4
2019-03-03T06:34:14.772Z,4
2019-03-03T06:35:14.740Z,4
2019-03-03T06:36:14.738Z,0
2019-03-03T06:37:14.712Z,4
2019-03-03T06:38:14.694Z,4
2019-03-03T06:39:14.657Z,4
2019-03-03T06:40:14.663Z,4
2019-03-03T06:41:14.628Z,8
2019-03-03T06:42:14.618Z,4
2019-03-03T06:43:14.572Z,4
2019-03-03T06:44:14.566Z,8
2019-03-03T06:45:14.578Z,8
2019-03-03T06:46:14.523Z,8
2019-03-03T06:47:14.503Z,8
2019-03-03T06:48:14.475Z,8
2019-03-03T06:49:14.491Z,12
2019-03-03T06:50:14.432Z,8
2019-03-03T06:51:14.424Z,8
2019-03-03T06:52:14.390Z,8
2019-03-03T06:53:14.377Z,12
2019-03-03T06:54:14.346Z,12
2019-03-03T06:55:14.339Z,8
2019-03-03T06:56:14.302Z,12
2019-03-03T06:57:14.297Z,12
2019-03-03T06:58:14.271Z,8
2019-03-03T06:59:14.253Z,12
2019-03-03T07:00:14.991Z,16
2019-03-03T07:01:14.226Z,12
2019-03-03T07:02:14.185Z,16
2019-03-03T07:03:14.165Z,20
2019-03-03T07:04:14.149Z,16
2019-03-03T07:05:14.115Z,16
2019-03-03T07:06:14.093Z,16
2019-03-03T07:07:13.827Z,20
2019-03-03T07:08:14.059Z,20
2019-03-03T07:09:14.033Z,16
2019-03-03T07:10:14.022Z,16
2019-03-03T07:11:14.870Z,16
2019-03-03T07:12:13.973Z,20
2019-03-03T07:13:13.949Z,20
2019-03-03T07:14:13.932Z,20
2019-03-03T07:15:13.897Z,28
2019-03-03T07:16:13.889Z,28
2019-03-03T07:17:13.868Z,28
2019-03-03T07:18:13.855Z,36
2019-03-03T07:19:13.830Z,48
2019-03-03T07:20:13.808Z,44
2019-03-03T07:21:13.815Z,44
2019-03-03T07:22:13.773Z,48
2019-03-03T07:23:13.749Z,44
2019-03-03T07:24:13.711Z,44
2019-03-03T07:25:13.705Z,52
2019-03-03T07:26:13.429Z,52
2019-03-03T07:27:13.420Z,48
2019-03-03T07:28:13.627Z,52
2019-03-03T07:29:13.614Z,52
2019-03-03T07:30:13.581Z,56
2019-03-03T07:31:13.586Z,52
2019-03-03T07:32:13.607Z,56
2019-03-03T07:33:13.523Z,64
2019-03-03T07:34:13.495Z,60
2019-03-03T07:35:13.482Z,60
2019-03-03T07:36:13.531Z,52
2019-03-03T07:37:13.438Z,64
2019-03-03T07:38:13.418Z,64
2019-03-03T07:39:13.385Z,72
2019-03-03T07:40:13.382Z,84
2019-03-03T07:41:13.369Z,76
2019-03-03T07:42:13.117Z,68
2019-03-03T07:43:13.307Z,88
2019-03-03T07:44:13.403Z,92
2019-03-03T07:45:13.271Z,88
2019-03-03T07:46:13.256Z,96
2019-03-03T07:47:13.222Z,112
2019-03-03T07:48:13.212Z,116
2019-03-03T07:49:13.190Z,104
2019-03-03T07:50:13.211Z,108
2019-03-03T07:51:13.151Z,100
2019-03-03T07:52:13.118Z,88
2019-03-03T07:53:13.169Z,80
2019-03-03T07:54:13.079Z,100
2019-03-03T07:55:13.071Z,120
2019-03-03T07:56:13.034Z,104
2019-03-03T07:57:13.022Z,96
2019-03-03T07:58:13.000Z,88
2019-03-03T07:59:12.988Z,104
2019-03-03T08:00:12.973Z,112
2019-03-03T08:01:12.935Z,92
2019-03-03T08:02:12.908Z,96
2019-03-03T08:03:12.907Z,88
2019-03-03T08:04:12.879Z,96
2019-03-03T08:05:12.851Z,72
2019-03-03T08:06:12.823Z,84
2019-03-03T08:07:12.812Z,80
2019-03-03T08:08:12.792Z,76
2019-03-03T08:09:12.765Z,48
2019-03-03T08:10:12.740Z,40
2019-03-03T08:11:12.710Z,48
2019-03-03T08:12:12.711Z,68
2019-03-03T08:13:16.559Z,76
2019-03-03T08:14:12.425Z,68
2019-03-03T08:15:12.388Z,68
2019-03-03T08:16:13.358Z,56
2019-03-03T08:17:12.594Z,52
2019-03-03T08:18:12.579Z,44
2019-03-03T08:19:12.544Z,56
2019-03-03T08:20:12.629Z,56
2019-03-03T08:21:12.520Z,40
2019-03-03T08:22:12.501Z,44
2019-03-03T08:23:12.477Z,52
2019-03-03T08:24:12.446Z,52
2019-03-03T08:25:12.430Z,52
2019-03-03T08:26:12.403Z,56
2019-03-03T08:27:12.394Z,64
2019-03-03T08:28:12.365Z,60
2019-03-03T08:29:12.369Z,60
2019-03-03T08:30:12.313Z,72
2019-03-03T08:31:12.344Z,76
2019-03-03T08:32:12.269Z,72
2019-03-03T08:33:12.252Z,76
2019-03-03T08:34:12.232Z,72
2019-03-03T08:35:12.240Z,56
2019-03-03T08:36:14.365Z,84
2019-03-03T08:37:12.167Z,80
2019-03-03T08:38:12.143Z,72
2019-03-03T08:39:12.128Z,76
2019-03-03T08:40:12.117Z,76
2019-03-03T08:41:12.088Z,80
2019-03-03T08:42:12.067Z,72
2019-03-03T08:43:12.035Z,92
2019-03-03T08:44:12.032Z,100
2019-03-03T08:45:12.102Z,92
2019-03-03T08:46:11.991Z,100
2019-03-03T08:47:11.959Z,104
2019-03-03T08:48:11.943Z,104
2019-03-03T08:49:11.936Z,100
2019-03-03T08:50:11.909Z,104
2019-03-03T08:51:11.863Z,80
2019-03-03T08:52:11.860Z,104
2019-03-03T08:53:11.832Z,92
2019-03-03T08:54:11.817Z,108
2019-03-03T08:55:11.802Z,84
2019-03-03T08:56:11.770Z,76
2019-03-03T08:57:11.751Z,92
2019-03-03T08:58:11.732Z,96
2019-03-03T08:59:11.718Z,84
2019-03-03T09:00:11.449Z,68
2019-03-03T09:01:11.664Z,72
2019-03-03T09:02:11.647Z,92
2019-03-03T09:03:11.621Z,92
2019-03-03T09:04:11.612Z,100
2019-03-03T09:05:11.591Z,76
2019-03-03T09:06:11.570Z,64
2019-03-03T09:07:11.521Z,60
2019-03-03T09:08:11.516Z,56
2019-03-03T09:09:11.491Z,80
2019-03-03T09:10:11.480Z,84
2019-03-03T09:11:11.456Z,92
2019-03-03T09:12:11.419Z,88
2019-03-03T09:13:11.410Z,80
2019-03-03T09:14:11.389Z,72
2019-03-03T09:15:11.378Z,76
2019-03-03T09:16:11.340Z,84
2019-03-03T09:17:11.326Z,92
2019-03-03T09:18:11.298Z,92
2019-03-03T09:19:11.298Z,108
2019-03-03T09:20:11.268Z,104
2019-03-03T09:21:11.264Z,80
2019-03-03T09:22:11.877Z,96
2019-03-03T09:23:11.213Z,96
2019-03-03T09:24:11.180Z,92
2019-03-03T09:25:11.160Z,80
2019-03-03T09:26:11.125Z,92
2019-03-03T09:27:11.115Z,80
2019-03-03T09:28:11.103Z,84
2019-03-03T09:29:11.071Z,80
2019-03-03T09:30:11.049Z,100
2019-03-03T09:31:11.018Z,80
2019-03-03T09:32:11.030Z,96
2019-03-03T09:33:10.985Z,104
2019-03-03T09:34:10.970Z,100
2019-03-03T09:35:10.938Z,96
2019-03-03T09:36:10.936Z,80
2019-03-03T09:37:10.907Z,80
2019-03-03T09:38:10.893Z,112
2019-03-03T09:39:12.661Z,104
2019-03-03T09:40:16.748Z,116
2019-03-03T09:41:10.825Z,124
2019-03-03T09:42:10.811Z,112
2019-03-03T09:43:10.771Z,116
2019-03-03T09:44:12.913Z,100
2019-03-03T09:45:10.736Z,92
2019-03-03T09:46:10.717Z,120
2019-03-03T09:47:10.702Z,124
2019-03-03T09:48:10.662Z,124
2019-03-03T09:49:10.654Z,108
2019-03-03T09:50:10.625Z,112
2019-03-03T09:51:10.625Z,112
2019-03-03T09:52:10.620Z,136
2019-03-03T09:53:10.568Z,152
2019-03-03T09:54:10.540Z,132
2019-03-03T09:55:10.534Z,108
2019-03-03T09:56:10.507Z,128
2019-03-03T09:57:10.479Z,148
2019-03-03T09:58:10.456Z,132
2019-03-03T09:59:10.445Z,100
2019-03-03T10:00:10.189Z,76
2019-03-03T10:01:10.400Z,60
2019-03-03T10:02:10.379Z,84
2019-03-03T10:03:10.343Z,140
2019-03-03T10:04:10.339Z,140
2019-03-03T10:05:10.313Z,128
2019-03-03T10:06:10.316Z,108
2019-03-03T10:07:10.253Z,116
2019-03-03T10:08:10.263Z,124
2019-03-03T10:09:10.232Z,120
2019-03-03T10:10:10.215Z,132
2019-03-03T10:11:10.170Z,136
2019-03-03T10:12:10.161Z,148
2019-03-03T10:13:10.148Z,136
2019-03-03T10:14:10.145Z,120
2019-03-03T10:15:10.107Z,116
2019-03-03T10:16:10.073Z,88
2019-03-03T10:17:09.818Z,80
2019-03-03T10:18:10.042Z,96
2019-03-03T10:19:14.460Z,88
2019-03-03T10:20:09.984Z,80
2019-03-03T10:21:10.422Z,92
2019-03-03T10:22:09.959Z,100
2019-03-03T10:23:09.701Z,120
2019-03-03T10:24:09.920Z,120
2019-03-03T10:25:09.893Z,148
2019-03-03T10:26:09.865Z,144
2019-03-03T10:27:09.861Z,116
2019-03-03T10:28:09.344Z,76
2019-03-03T10:29:09.817Z,68
2019-03-03T10:30:09.788Z,88
2019-03-03T10:31:09.761Z,100
2019-03-03T10:32:09.749Z,108
2019-03-03T10:33:09.735Z,116
2019-03-03T10:34:09.714Z,124
2019-03-03T10:35:09.672Z,136
2019-03-03T10:36:09.667Z,148
2019-03-03T10:37:09.658Z,160
2019-03-03T10:38:09.628Z,168
2019-03-03T10:39:09.591Z,152
2019-03-03T10:40:09.582Z,152
2019-03-03T10:41:09.558Z,140
2019-03-03T10:42:09.534Z,108
2019-03-03T10:43:09.493Z,128
2019-03-03T10:44:09.488Z,136
2019-03-03T10:45:09.468Z,116
2019-03-03T10:46:09.450Z,120
2019-03-03T10:47:09.425Z,132
2019-03-03T10:48:09.397Z,148
2019-03-03T10:49:09.383Z,164
2019-03-03T10:50:09.358Z,148
2019-03-03T10:51:09.353Z,148
2019-03-03T10:52:09.313Z,152
2019-03-03T10:53:09.303Z,180
2019-03-03T10:54:09.270Z,184
2019-03-03T10:55:09.268Z,176
2019-03-03T10:56:09.230Z,192
2019-03-03T10:57:09.214Z,184
2019-03-03T10:58:09.190Z,152
2019-03-03T10:59:09.185Z,168
2019-03-03T11:00:09.151Z,196
2019-03-03T11:01:09.131Z,192
2019-03-03T11:02:09.101Z,216
2019-03-03T11:03:09.773Z,192
2019-03-03T11:04:09.073Z,184
2019-03-03T11:05:09.059Z,156
2019-03-03T11:06:09.032Z,184
2019-03-03T11:07:08.999Z,152
2019-03-03T11:08:10.143Z,164
2019-03-03T11:09:08.958Z,160
2019-03-03T11:10:08.946Z,132
2019-03-03T11:11:08.929Z,116
2019-03-03T11:12:08.902Z,144
2019-03-03T11:13:08.875Z,140
2019-03-03T11:14:09.247Z,128
2019-03-03T11:15:17.953Z,136
2019-03-03T11:16:08.813Z,112
2019-03-03T11:17:08.790Z,132
2019-03-03T11:18:08.781Z,108
2019-03-03T11:19:08.767Z,120
2019-03-03T11:20:08.727Z,140
2019-03-03T11:21:08.739Z,128
2019-03-03T11:22:08.690Z,144
2019-03-03T11:23:08.684Z,112
2019-03-03T11:24:08.637Z,136
2019-03-03T11:25:08.634Z,120
2019-03-03T11:26:08.605Z,140
2019-03-03T11:27:08.597Z,132
2019-03-03T11:28:08.560Z,132
2019-03-03T11:29:08.550Z,128
2019-03-03T11:30:08.515Z,140
2019-03-03T11:31:08.633Z,148
2019-03-03T11:32:08.582Z,144
2019-03-03T11:33:08.458Z,148
2019-03-03T11:34:08.430Z,172
2019-03-03T11:35:08.418Z,156
2019-03-03T11:36:08.403Z,172
2019-03-03T11:37:08.367Z,160
2019-03-03T11:38:08.158Z,192
2019-03-03T11:39:08.313Z,168
2019-03-03T11:40:08.315Z,168
2019-03-03T11:41:08.297Z,188
2019-03-03T11:42:08.281Z,176
2019-03-03T11:43:08.232Z,244
2019-03-03T11:44:08.232Z,220
2019-03-03T11:45:08.261Z,216
2019-03-03T11:46:09.001Z,228
2019-03-03T11:47:08.150Z,188
2019-03-03T11:48:11.660Z,192
2019-03-03T11:49:08.125Z,176
2019-03-03T11:50:08.099Z,140
2019-03-03T11:51:08.071Z,132
2019-03-03T11:52:08.045Z,148
2019-03-03T11:53:08.033Z,156
2019-03-03T11:54:08.021Z,184
2019-03-03T11:55:08.362Z,192
2019-03-03T11:56:07.961Z,148
2019-03-03T11:57:07.716Z,140
2019-03-03T11:58:07.942Z,136
2019-03-03T11:59:07.929Z,144
2019-03-03T12:00:09.893Z,152
2019-03-03T12:01:07.858Z,172
2019-03-03T12:02:07.904Z,156
2019-03-03T12:03:07.836Z,132
2019-03-03T12:04:07.813Z,160
2019-03-03T12:05:07.808Z,168
2019-03-03T12:06:07.756Z,148
2019-03-03T12:07:07.513Z,132
2019-03-03T12:08:07.732Z,176
2019-03-03T12:09:07.706Z,148
2019-03-03T12:10:07.692Z,152
2019-03-03T12:11:07.649Z,144
2019-03-03T12:12:07.403Z,152
2019-03-03T12:13:07.622Z,148
2019-03-03T12:14:07.604Z,168
2019-03-03T12:15:07.568Z,148
2019-03-03T12:16:07.595Z,148
2019-03-03T12:17:07.536Z,144
2019-03-03T12:18:07.516Z,152
2019-03-03T12:19:08.837Z,168
2019-03-03T12:20:07.469Z,188
2019-03-03T12:21:07.451Z,188
2019-03-03T12:22:07.437Z,204
2019-03-03T12:23:07.185Z,196
2019-03-03T12:24:07.415Z,152
2019-03-03T12:25:07.379Z,132
2019-03-03T12:26:07.336Z,132
2019-03-03T12:27:07.324Z,136
2019-03-03T12:28:07.305Z,120
2019-03-03T12:29:07.295Z,108
2019-03-03T12:30:07.367Z,100
2019-03-03T12:31:07.235Z,112
2019-03-03T12:32:07.223Z,120
2019-03-03T12:33:07.206Z,104
2019-03-03T12:34:07.194Z,112
2019-03-03T12:35:07.143Z,104
2019-03-03T12:36:07.482Z,108
2019-03-03T12:37:07.114Z,140
2019-03-03T12:38:07.091Z,116
2019-03-03T12:39:07.065Z,112
2019-03-03T12:40:07.050Z,112
2019-03-03T12:41:07.055Z,112
2019-03-03T12:42:08.436Z,100
2019-03-03T12:43:06.991Z,88
2019-03-03T12:44:06.954Z,96
2019-03-03T12:45:06.944Z,96
2019-03-03T12:46:06.936Z,112
2019-03-03T12:47:06.923Z,104
2019-03-03T12:48:06.628Z,100
2019-03-03T12:49:06.858Z,120
2019-03-03T12:50:06.590Z,108
2019-03-03T12:51:06.830Z,100
2019-03-03T12:52:06.800Z,136
2019-03-03T12:53:06.774Z,136
2019-03-03T12:54:06.746Z,128
2019-03-03T12:55:06.731Z,104
2019-03-03T12:56:06.720Z,116
2019-03-03T12:57:06.685Z,104
2019-03-03T12:58:06.663Z,96
2019-03-03T12:59:06.633Z,108
2019-03-03T13:00:06.631Z,84
2019-03-03T13:01:06.625Z,100
2019-03-03T13:02:06.589Z,104
2019-03-03T13:03:06.552Z,108
2019-03-03T13:04:06.554Z,104
2019-03-03T13:05:06.525Z,132
2019-03-03T13:06:06.502Z,112
2019-03-03T13:07:06.470Z,112
2019-03-03T13:08:06.456Z,120
2019-03-03T13:09:07.090Z,104
2019-03-03T13:10:06.430Z,104
2019-03-03T13:11:06.449Z,128
2019-03-03T13:12:06.370Z,96
2019-03-03T13:13:06.352Z,112
2019-03-03T13:14:06.332Z,112
2019-03-03T13:15:06.337Z,128
2019-03-03T13:16:06.282Z,136
2019-03-03T13:17:06.271Z,124
2019-03-03T13:18:06.241Z,120
2019-03-03T13:19:06.238Z,132
2019-03-03T13:20:06.201Z,136
2019-03-03T13:21:06.183Z,120
2019-03-03T13:22:05.917Z,124
2019-03-03T13:23:06.153Z,132
2019-03-03T13:24:06.133Z,112
2019-03-03T13:25:06.111Z,128
2019-03-03T13:26:06.074Z,116
2019-03-03T13:27:06.116Z,108
2019-03-03T13:28:06.051Z,88
2019-03-03T13:29:06.018Z,112
2019-03-03T13:30:06.023Z,112
2019-03-03T13:31:05.986Z,92
2019-03-03T13:32:05.959Z,104
2019-03-03T13:33:05.929Z,104
2019-03-03T13:34:05.923Z,88
2019-03-03T13:35:06.031Z,92
2019-03-03T13:36:05.881Z,96
2019-03-03T13:37:06.315Z,88
2019-03-03T13:38:05.933Z,84
2019-03-03T13:39:05.802Z,88
2019-03-03T13:40:05.785Z,96
2019-03-03T13:41:05.767Z,80
2019-03-03T13:42:05.748Z,76
2019-03-03T13:43:05.724Z,80
2019-03-03T13:44:05.694Z,72
2019-03-03T13:45:05.690Z,72
2019-03-03T13:46:05.671Z,64
2019-03-03T13:47:05.650Z,72
2019-03-03T13:48:05.630Z,68
2019-03-03T13:49:05.603Z,72
2019-03-03T13:50:05.575Z,76
2019-03-03T13:51:05.569Z,80
2019-03-03T13:52:05.527Z,96
2019-03-03T13:53:05.520Z,76
2019-03-03T13:54:06.536Z,80
2019-03-03T13:55:05.487Z,84
2019-03-03T13:56:05.464Z,84
2019-03-03T13:57:05.435Z,92
2019-03-03T13:58:05.416Z,96
2019-03-03T13:59:05.399Z,76
2019-03-03T14:00:05.384Z,96
2019-03-03T14:01:05.392Z,76
2019-03-03T14:02:05.322Z,92
2019-03-03T14:03:05.297Z,84
2019-03-03T14:04:05.300Z,84
2019-03-03T14:05:05.268Z,100
2019-03-03T14:06:05.013Z,88
2019-03-03T14:07:05.219Z,108
2019-03-03T14:08:05.196Z,112
2019-03-03T14:09:05.185Z,84
2019-03-03T14:10:05.238Z,88
2019-03-03T14:11:05.154Z,92
2019-03-03T14:12:04.885Z,96
2019-03-03T14:13:04.865Z,104
2019-03-03T14:14:05.213Z,104
2019-03-03T14:15:05.057Z,104
2019-03-03T14:16:05.041Z,108
2019-03-03T14:17:04.759Z,120
2019-03-03T14:18:05.274Z,100
2019-03-03T14:19:04.969Z,108
2019-03-03T14:20:05.026Z,100
2019-03-03T14:21:04.929Z,100